sensor_id;sensor_type;location;lat;lon;timestamp;pressure;altitude;pressure_sealevel;temperature;humidity
41531;BME280;58990;46.284;13.126;2022-07-10T00:00:00;99587.81;;;21.60;40.89
41531;BME280;58990;46.284;13.126;2022-07-10T00:02:26;99588.97;;;21.47;41.10
41531;BME280;58990;46.284;13.126;2022-07-10T00:04:51;99579.50;;;21.40;41.64
41531;BME280;58990;46.284;13.126;2022-07-10T00:07:17;99578.13;;;21.37;41.72
41531;BME280;58990;46.284;13.126;2022-07-10T00:09:42;99576.81;;;21.23;42.54
41531;BME280;58990;46.284;13.126;2022-07-10T00:12:07;99581.03;;;21.18;42.98
41531;BME280;58990;46.284;13.126;2022-07-10T00:14:33;99596.50;;;21.16;42.96
41531;BME280;58990;46.284;13.126;2022-07-10T00:16:58;99595.41;;;21.17;42.81
41531;BME280;58990;46.284;13.126;2022-07-10T00:19:24;99589.84;;;21.19;42.10
41531;BME280;58990;46.284;13.126;2022-07-10T00:21:49;99582.06;;;21.17;41.97
41531;BME280;58990;46.284;13.126;2022-07-10T00:24:14;99581.03;;;21.18;42.30
41531;BME280;58990;46.284;13.126;2022-07-10T00:26:40;99570.44;;;21.24;42.29
41531;BME280;58990;46.284;13.126;2022-07-10T00:29:05;99572.69;;;21.32;41.79
41531;BME280;58990;46.284;13.126;2022-07-10T00:31:31;99581.19;;;21.29;41.92
41531;BME280;58990;46.284;13.126;2022-07-10T00:33:56;99575.53;;;21.25;42.08
41531;BME280;58990;46.284;13.126;2022-07-10T00:36:22;99576.81;;;21.23;42.63
41531;BME280;58990;46.284;13.126;2022-07-10T00:38:47;99577.88;;;21.22;42.37
41531;BME280;58990;46.284;13.126;2022-07-10T00:41:12;99565.69;;;21.26;41.76
41531;BME280;58990;46.284;13.126;2022-07-10T00:46:34;99563.72;;;21.38;40.56
41531;BME280;58990;46.284;13.126;2022-07-10T00:49:00;99566.47;;;21.43;40.56
41531;BME280;58990;46.284;13.126;2022-07-10T00:51:28;99571.97;;;21.37;40.90
41531;BME280;58990;46.284;13.126;2022-07-10T00:53:55;99564.34;;;21.28;41.36
41531;BME280;58990;46.284;13.126;2022-07-10T00:56:23;99577.16;;;21.26;42.00
41531;BME280;58990;46.284;13.126;2022-07-10T00:58:50;99569.88;;;21.22;41.99
41531;BME280;58990;46.284;13.126;2022-07-10T01:01:16;99567.13;;;21.16;42.17
41531;BME280;58990;46.284;13.126;2022-07-10T01:03:43;99563.97;;;21.20;41.56
41531;BME280;58990;46.284;13.126;2022-07-10T01:06:12;99559.13;;;21.16;41.55
41531;BME280;58990;46.284;13.126;2022-07-10T01:08:39;99555.97;;;21.20;41.90
41531;BME280;58990;46.284;13.126;2022-07-10T01:11:05;99552.25;;;21.21;41.84
41531;BME280;58990;46.284;13.126;2022-07-10T01:13:31;99546.91;;;21.21;41.98
41531;BME280;58990;46.284;13.126;2022-07-10T01:15:57;99547.47;;;21.23;41.89
41531;BME280;58990;46.284;13.126;2022-07-10T01:18:25;99546.91;;;21.21;41.88
41531;BME280;58990;46.284;13.126;2022-07-10T01:20:52;99550.63;;;21.03;42.51
41531;BME280;58990;46.284;13.126;2022-07-10T01:23:17;99537.38;;;20.91;43.26
41531;BME280;58990;46.284;13.126;2022-07-10T01:25:42;99537.44;;;20.96;42.73
41531;BME280;58990;46.284;13.126;2022-07-10T01:28:08;99533.47;;;20.98;42.14
41531;BME280;58990;46.284;13.126;2022-07-10T01:30:33;99533.22;;;21.00;42.37
41531;BME280;58990;46.284;13.126;2022-07-10T01:32:59;99522.22;;;21.13;41.64
41531;BME280;58990;46.284;13.126;2022-07-10T01:35:24;99513.91;;;21.10;42.92
41531;BME280;58990;46.284;13.126;2022-07-10T01:37:50;99510.03;;;20.83;42.52
41531;BME280;58990;46.284;13.126;2022-07-10T01:40:15;99507.75;;;20.75;42.58
41531;BME280;58990;46.284;13.126;2022-07-10T01:42:41;99514.22;;;20.79;42.88
41531;BME280;58990;46.284;13.126;2022-07-10T01:45:09;99513.28;;;20.86;41.73
41531;BME280;58990;46.284;13.126;2022-07-10T01:47:35;99506.91;;;20.87;41.70
41531;BME280;58990;46.284;13.126;2022-07-10T01:50:01;99505.81;;;20.88;41.87
41531;BME280;58990;46.284;13.126;2022-07-10T01:52:27;99495.81;;;20.95;41.58
41531;BME280;58990;46.284;13.126;2022-07-10T01:54:52;99494.28;;;20.99;41.32
41531;BME280;58990;46.284;13.126;2022-07-10T01:57:17;99490.53;;;21.00;41.66
41531;BME280;58990;46.284;13.126;2022-07-10T01:59:43;99493.53;;;21.04;42.00
41531;BME280;58990;46.284;13.126;2022-07-10T02:02:08;99483.38;;;21.00;42.33
41531;BME280;58990;46.284;13.126;2022-07-10T02:04:34;99482.53;;;21.00;42.37
41531;BME280;58990;46.284;13.126;2022-07-10T02:07:07;99480.69;;;21.00;42.63
41531;BME280;58990;46.284;13.126;2022-07-10T02:09:32;99479.88;;;21.00;42.56
41531;BME280;58990;46.284;13.126;2022-07-10T02:11:57;99488.44;;;21.02;42.29
41531;BME280;58990;46.284;13.126;2022-07-10T02:14:23;99484.66;;;20.98;41.31
41531;BME280;58990;46.284;13.126;2022-07-10T02:16:48;99483.53;;;20.94;41.32
41531;BME280;58990;46.284;13.126;2022-07-10T02:19:14;99478.34;;;20.87;41.66
41531;BME280;58990;46.284;13.126;2022-07-10T02:21:40;99480.22;;;20.87;41.37
41531;BME280;58990;46.284;13.126;2022-07-10T02:24:05;99475.19;;;20.90;41.94
41531;BME280;58990;46.284;13.126;2022-07-10T02:26:31;99479.25;;;20.76;43.02
41531;BME280;58990;46.284;13.126;2022-07-10T02:28:56;99475.09;;;20.68;43.12
41531;BME280;58990;46.284;13.126;2022-07-10T02:31:21;99484.75;;;20.69;42.30
41531;BME280;58990;46.284;13.126;2022-07-10T02:33:47;99483.22;;;20.73;41.94
41531;BME280;58990;46.284;13.126;2022-07-10T02:36:12;99493.06;;;20.73;41.66
41531;BME280;58990;46.284;13.126;2022-07-10T02:38:38;99489.72;;;20.65;41.63
41531;BME280;58990;46.284;13.126;2022-07-10T02:41:03;99495.84;;;20.66;41.46
41531;BME280;58990;46.284;13.126;2022-07-10T02:43:29;99483.00;;;20.63;41.29
41531;BME280;58990;46.284;13.126;2022-07-10T02:45:54;99490.50;;;20.66;41.40
41531;BME280;58990;46.284;13.126;2022-07-10T02:48:19;99482.50;;;20.66;41.30
41531;BME280;58990;46.284;13.126;2022-07-10T02:50:45;99487.28;;;20.64;41.17
41531;BME280;58990;46.284;13.126;2022-07-10T02:53:10;99476.06;;;20.62;41.96
41531;BME280;58990;46.284;13.126;2022-07-10T02:55:36;99475.00;;;20.63;42.22
41531;BME280;58990;46.284;13.126;2022-07-10T02:58:02;99468.28;;;20.60;42.15
41531;BME280;58990;46.284;13.126;2022-07-10T03:00:28;99472.25;;;20.58;42.62
41531;BME280;58990;46.284;13.126;2022-07-10T03:02:55;99479.69;;;20.56;42.78
41531;BME280;58990;46.284;13.126;2022-07-10T03:05:21;99477.03;;;20.56;43.14
41531;BME280;58990;46.284;13.126;2022-07-10T03:07:46;99476.59;;;20.30;43.85
41531;BME280;58990;46.284;13.126;2022-07-10T03:10:12;99485.72;;;20.34;43.44
41531;BME280;58990;46.284;13.126;2022-07-10T03:12:37;99490.72;;;20.30;43.49
41531;BME280;58990;46.284;13.126;2022-07-10T03:15:05;99480.94;;;20.36;43.57
41531;BME280;58990;46.284;13.126;2022-07-10T03:17:31;99482.56;;;20.37;43.36
41531;BME280;58990;46.284;13.126;2022-07-10T03:19:56;99483.94;;;20.40;43.40
41531;BME280;58990;46.284;13.126;2022-07-10T03:22:21;99474.66;;;20.42;42.85
41531;BME280;58990;46.284;13.126;2022-07-10T03:24:47;99487.50;;;20.45;43.11
41531;BME280;58990;46.284;13.126;2022-07-10T03:27:13;99486.94;;;20.43;43.29
41531;BME280;58990;46.284;13.126;2022-07-10T03:29:39;99487.41;;;20.40;43.43
41531;BME280;58990;46.284;13.126;2022-07-10T03:32:06;99480.41;;;20.51;42.81
41531;BME280;58990;46.284;13.126;2022-07-10T03:34:31;99477.78;;;20.39;42.87
41531;BME280;58990;46.284;13.126;2022-07-10T03:36:59;99482.09;;;20.40;42.78
41531;BME280;58990;46.284;13.126;2022-07-10T03:39:26;99471.81;;;20.32;42.88
41531;BME280;58990;46.284;13.126;2022-07-10T03:41:51;99474.22;;;20.33;43.18
41531;BME280;58990;46.284;13.126;2022-07-10T03:44:17;99470.19;;;20.31;43.25
41531;BME280;58990;46.284;13.126;2022-07-10T03:46:42;99465.53;;;20.38;43.26
41531;BME280;58990;46.284;13.126;2022-07-10T03:49:08;99459.63;;;20.36;42.97
41531;BME280;58990;46.284;13.126;2022-07-10T03:51:33;99471.16;;;20.25;43.83
41531;BME280;58990;46.284;13.126;2022-07-10T03:53:58;99469.19;;;20.20;44.46
41531;BME280;58990;46.284;13.126;2022-07-10T03:56:24;99470.63;;;20.11;45.06
41531;BME280;58990;46.284;13.126;2022-07-10T03:59:09;99468.59;;;20.01;45.88
41531;BME280;58990;46.284;13.126;2022-07-10T04:01:35;99470.22;;;20.02;46.05
41531;BME280;58990;46.284;13.126;2022-07-10T04:04:00;99474.50;;;20.03;45.65
41531;BME280;58990;46.284;13.126;2022-07-10T04:06:25;99476.81;;;19.99;45.64
41531;BME280;58990;46.284;13.126;2022-07-10T04:08:51;99475.75;;;20.12;45.25
41531;BME280;58990;46.284;13.126;2022-07-10T04:11:17;99473.53;;;20.09;45.39
41531;BME280;58990;46.284;13.126;2022-07-10T04:13:42;99470.78;;;20.04;45.95
41531;BME280;58990;46.284;13.126;2022-07-10T04:16:08;99465.13;;;20.00;46.12
41531;BME280;58990;46.284;13.126;2022-07-10T04:18:37;99467.31;;;20.04;45.36
41531;BME280;58990;46.284;13.126;2022-07-10T04:21:03;99467.81;;;20.17;44.59
41531;BME280;58990;46.284;13.126;2022-07-10T04:23:28;99471.47;;;20.28;44.07
41531;BME280;58990;46.284;13.126;2022-07-10T04:25:54;99461.63;;;20.29;44.25
41531;BME280;58990;46.284;13.126;2022-07-10T04:28:19;99460.81;;;20.28;44.58
41531;BME280;58990;46.284;13.126;2022-07-10T04:30:45;99463.81;;;20.32;44.53
41531;BME280;58990;46.284;13.126;2022-07-10T04:33:10;99456.00;;;20.42;43.34
41531;BME280;58990;46.284;13.126;2022-07-10T04:35:35;99455.75;;;20.44;43.73
41531;BME280;58990;46.284;13.126;2022-07-10T04:38:01;99469.44;;;20.47;44.08
41531;BME280;58990;46.284;13.126;2022-07-10T04:40:26;99462.00;;;20.49;43.44
41531;BME280;58990;46.284;13.126;2022-07-10T04:42:52;99454.63;;;20.57;43.01
41531;BME280;58990;46.284;13.126;2022-07-10T04:45:17;99442.44;;;20.61;43.23
41531;BME280;58990;46.284;13.126;2022-07-10T04:47:42;99440.75;;;20.55;43.36
41531;BME280;58990;46.284;13.126;2022-07-10T04:50:08;99440.00;;;20.59;43.57
41531;BME280;58990;46.284;13.126;2022-07-10T04:52:33;99435.34;;;20.66;43.53
41531;BME280;58990;46.284;13.126;2022-07-10T04:54:59;99442.13;;;20.74;43.96
41531;BME280;58990;46.284;13.126;2022-07-10T04:57:24;99434.72;;;20.76;43.70
41531;BME280;58990;46.284;13.126;2022-07-10T04:59:50;99443.25;;;20.78;43.91
41531;BME280;58990;46.284;13.126;2022-07-10T05:02:15;99444.72;;;20.86;43.34
41531;BME280;58990;46.284;13.126;2022-07-10T05:04:41;99431.13;;;20.88;43.49
41531;BME280;58990;46.284;13.126;2022-07-10T05:07:06;99426.38;;;20.90;43.48
41531;BME280;58990;46.284;13.126;2022-07-10T05:09:31;99429.13;;;20.95;43.86
41531;BME280;58990;46.284;13.126;2022-07-10T05:11:57;99428.47;;;21.05;43.27
41531;BME280;58990;46.284;13.126;2022-07-10T05:14:22;99431.63;;;21.02;42.73
41531;BME280;58990;46.284;13.126;2022-07-10T05:16:48;99437.75;;;21.02;43.33
41531;BME280;58990;46.284;13.126;2022-07-10T05:19:13;99443.59;;;20.99;42.91
41531;BME280;58990;46.284;13.126;2022-07-10T05:21:39;99443.72;;;21.09;42.54
41531;BME280;58990;46.284;13.126;2022-07-10T05:24:05;99449.47;;;21.18;41.61
41531;BME280;58990;46.284;13.126;2022-07-10T05:26:30;99450.34;;;21.24;41.26
41531;BME280;58990;46.284;13.126;2022-07-10T05:28:55;99445.50;;;21.21;42.08
41531;BME280;58990;46.284;13.126;2022-07-10T05:31:21;99441.34;;;21.30;42.53
41531;BME280;58990;46.284;13.126;2022-07-10T05:33:46;99437.50;;;21.43;42.21
41531;BME280;58990;46.284;13.126;2022-07-10T05:36:12;99444.81;;;21.52;41.97
41531;BME280;58990;46.284;13.126;2022-07-10T05:38:37;99431.13;;;21.66;42.28
41531;BME280;58990;46.284;13.126;2022-07-10T05:41:03;99424.78;;;21.72;42.08
41531;BME280;58990;46.284;13.126;2022-07-10T05:43:28;99419.00;;;21.80;42.01
41531;BME280;58990;46.284;13.126;2022-07-10T05:45:55;99422.91;;;21.95;42.02
41531;BME280;58990;46.284;13.126;2022-07-10T05:48:20;99426.13;;;22.24;40.89
41531;BME280;58990;46.284;13.126;2022-07-10T05:50:45;99428.22;;;22.22;41.47
41531;BME280;58990;46.284;13.126;2022-07-10T05:53:11;99421.22;;;22.16;42.16
41531;BME280;58990;46.284;13.126;2022-07-10T05:55:37;99424.91;;;22.10;42.17
41531;BME280;58990;46.284;13.126;2022-07-10T05:58:02;99424.34;;;22.08;42.24
41531;BME280;58990;46.284;13.126;2022-07-10T06:00:28;99415.53;;;22.07;42.07
41531;BME280;58990;46.284;13.126;2022-07-10T06:02:53;99419.56;;;22.10;41.93
41531;BME280;58990;46.284;13.126;2022-07-10T06:05:18;99411.84;;;22.13;41.94
41531;BME280;58990;46.284;13.126;2022-07-10T06:07:44;99422.56;;;22.18;41.73
41531;BME280;58990;46.284;13.126;2022-07-10T06:10:09;99415.59;;;22.12;42.27
41531;BME280;58990;46.284;13.126;2022-07-10T06:12:35;99423.81;;;22.06;42.60
41531;BME280;58990;46.284;13.126;2022-07-10T06:15:02;99422.69;;;22.01;43.05
41531;BME280;58990;46.284;13.126;2022-07-10T06:17:28;99424.53;;;21.96;43.92
41531;BME280;58990;46.284;13.126;2022-07-10T06:19:53;99426.22;;;22.07;43.86
41531;BME280;58990;46.284;13.126;2022-07-10T06:22:19;99421.41;;;22.09;44.17
41531;BME280;58990;46.284;13.126;2022-07-10T06:25:00;99423.09;;;22.15;43.50
41531;BME280;58990;46.284;13.126;2022-07-10T06:27:26;99418.34;;;22.23;42.99
41531;BME280;58990;46.284;13.126;2022-07-10T06:29:52;99418.66;;;22.26;42.74
41531;BME280;58990;46.284;13.126;2022-07-10T06:32:18;99411.56;;;22.37;42.11
41531;BME280;58990;46.284;13.126;2022-07-10T06:34:43;99413.50;;;22.47;41.90
41531;BME280;58990;46.284;13.126;2022-07-10T06:37:09;99410.66;;;22.59;41.14
41531;BME280;58990;46.284;13.126;2022-07-10T06:39:34;99403.50;;;22.70;41.05
41531;BME280;58990;46.284;13.126;2022-07-10T06:42:01;99411.53;;;22.70;41.41
41531;BME280;58990;46.284;13.126;2022-07-10T06:44:27;99418.06;;;22.84;42.07
41531;BME280;58990;46.284;13.126;2022-07-10T06:46:52;99418.91;;;22.95;41.59
41531;BME280;58990;46.284;13.126;2022-07-10T06:49:40;99411.59;;;23.17;41.72
41531;BME280;58990;46.284;13.126;2022-07-10T06:52:06;99411.34;;;23.29;41.88
41531;BME280;58990;46.284;13.126;2022-07-10T06:54:32;99409.53;;;23.40;41.11
41531;BME280;58990;46.284;13.126;2022-07-10T06:56:57;99410.13;;;23.58;40.56
41531;BME280;58990;46.284;13.126;2022-07-10T06:59:23;99415.00;;;23.71;39.62
41531;BME280;58990;46.284;13.126;2022-07-10T07:01:49;99408.59;;;23.77;39.79
41531;BME280;58990;46.284;13.126;2022-07-10T07:04:14;99411.34;;;24.03;39.07
41531;BME280;58990;46.284;13.126;2022-07-10T07:06:40;99412.41;;;24.02;38.72
41531;BME280;58990;46.284;13.126;2022-07-10T07:09:05;99416.69;;;24.03;38.46
41531;BME280;58990;46.284;13.126;2022-07-10T07:11:31;99411.31;;;23.93;38.48
41531;BME280;58990;46.284;13.126;2022-07-10T07:13:56;99413.19;;;23.92;38.39
41531;BME280;58990;46.284;13.126;2022-07-10T07:16:21;99419.13;;;24.05;38.77
41531;BME280;58990;46.284;13.126;2022-07-10T07:19:02;99421.00;;;23.99;39.16
41531;BME280;58990;46.284;13.126;2022-07-10T07:21:29;99416.69;;;23.93;39.26
41531;BME280;58990;46.284;13.126;2022-07-10T07:24:15;99418.31;;;23.99;38.75
41531;BME280;58990;46.284;13.126;2022-07-10T07:26:40;99408.09;;;24.01;39.25
41531;BME280;58990;46.284;13.126;2022-07-10T07:29:06;99409.22;;;24.15;38.87
41531;BME280;58990;46.284;13.126;2022-07-10T07:31:31;99411.91;;;24.21;38.75
41531;BME280;58990;46.284;13.126;2022-07-10T07:33:57;99408.16;;;24.27;38.20
41531;BME280;58990;46.284;13.126;2022-07-10T07:36:23;99415.91;;;24.39;38.94
41531;BME280;58990;46.284;13.126;2022-07-10T07:38:48;99407.88;;;24.44;38.70
41531;BME280;58990;46.284;13.126;2022-07-10T07:41:14;99414.03;;;24.55;38.18
41531;BME280;58990;46.284;13.126;2022-07-10T07:43:40;99414.59;;;24.77;37.98
41531;BME280;58990;46.284;13.126;2022-07-10T07:46:06;99407.59;;;24.92;36.88
41531;BME280;58990;46.284;13.126;2022-07-10T07:48:31;99413.97;;;25.11;36.86
41531;BME280;58990;46.284;13.126;2022-07-10T07:50:57;99408.59;;;25.11;36.91
41531;BME280;58990;46.284;13.126;2022-07-10T07:53:23;99406.47;;;25.03;36.96
41531;BME280;58990;46.284;13.126;2022-07-10T07:55:48;99401.72;;;24.74;37.75
41531;BME280;58990;46.284;13.126;2022-07-10T07:58:14;99397.66;;;24.56;38.52
41531;BME280;58990;46.284;13.126;2022-07-10T08:00:39;99392.00;;;24.99;38.13
41531;BME280;58990;46.284;13.126;2022-07-10T08:03:05;99397.03;;;25.76;36.10
41531;BME280;58990;46.284;13.126;2022-07-10T08:05:30;99395.31;;;26.65;34.84
41531;BME280;58990;46.284;13.126;2022-07-10T08:07:57;99398.09;;;27.32;32.98
41531;BME280;58990;46.284;13.126;2022-07-10T08:10:33;99392.41;;;27.15;33.28
41531;BME280;58990;46.284;13.126;2022-07-10T08:12:58;99394.69;;;27.70;31.74
41531;BME280;58990;46.284;13.126;2022-07-10T08:15:24;99397.09;;;28.43;30.09
41531;BME280;58990;46.284;13.126;2022-07-10T08:17:51;99389.59;;;28.86;29.23
41531;BME280;58990;46.284;13.126;2022-07-10T08:20:17;99390.38;;;29.01;28.91
41531;BME280;58990;46.284;13.126;2022-07-10T08:22:43;99393.19;;;28.82;29.56
41531;BME280;58990;46.284;13.126;2022-07-10T08:25:09;99387.59;;;29.34;30.46
41531;BME280;58990;46.284;13.126;2022-07-10T08:27:35;99382.00;;;29.30;29.89
41531;BME280;58990;46.284;13.126;2022-07-10T08:30:01;99380.59;;;29.33;30.02
41531;BME280;58990;46.284;13.126;2022-07-10T08:32:27;99373.09;;;29.66;29.00
41531;BME280;58990;46.284;13.126;2022-07-10T08:34:54;99372.34;;;29.38;30.24
41531;BME280;58990;46.284;13.126;2022-07-10T08:37:19;99363.31;;;29.57;29.78
41531;BME280;58990;46.284;13.126;2022-07-10T08:39:45;99366.75;;;28.65;31.59
41531;BME280;58990;46.284;13.126;2022-07-10T08:42:11;99360.53;;;28.17;31.74
41531;BME280;58990;46.284;13.126;2022-07-10T08:44:37;99362.22;;;28.13;32.22
41531;BME280;58990;46.284;13.126;2022-07-10T08:47:03;99357.13;;;28.59;31.63
41531;BME280;58990;46.284;13.126;2022-07-10T08:49:31;99350.41;;;29.40;30.65
41531;BME280;58990;46.284;13.126;2022-07-10T08:54:36;99344.56;;;29.97;30.36
41531;BME280;58990;46.284;13.126;2022-07-10T08:57:03;99342.56;;;29.66;30.02
41531;BME280;58990;46.284;13.126;2022-07-10T08:59:30;99338.66;;;29.58;30.48
41531;BME280;58990;46.284;13.126;2022-07-10T09:01:56;99341.19;;;28.76;33.06
41531;BME280;58990;46.284;13.126;2022-07-10T09:04:23;99336.63;;;29.41;32.88
41531;BME280;58990;46.284;13.126;2022-07-10T09:06:50;99327.34;;;29.19;33.39
41531;BME280;58990;46.284;13.126;2022-07-10T09:09:16;99328.44;;;29.92;33.54
41531;BME280;58990;46.284;13.126;2022-07-10T09:11:42;99331.03;;;29.97;34.44
41531;BME280;58990;46.284;13.126;2022-07-10T09:14:11;99321.75;;;30.20;34.01
41531;BME280;58990;46.284;13.126;2022-07-10T09:16:40;99322.94;;;30.28;33.82
41531;BME280;58990;46.284;13.126;2022-07-10T09:19:26;99325.75;;;30.46;33.04
41531;BME280;58990;46.284;13.126;2022-07-10T09:24:36;99328.53;;;29.64;34.75
41531;BME280;58990;46.284;13.126;2022-07-10T09:27:01;99321.66;;;30.03;33.74
41531;BME280;58990;46.284;13.126;2022-07-10T09:29:29;99317.97;;;29.99;33.17
41531;BME280;58990;46.284;13.126;2022-07-10T09:31:57;99312.53;;;29.90;33.40
41531;BME280;58990;46.284;13.126;2022-07-10T09:37:28;99320.91;;;28.32;35.04
41531;BME280;58990;46.284;13.126;2022-07-10T09:40:02;99317.91;;;28.33;35.35
41531;BME280;58990;46.284;13.126;2022-07-10T09:42:33;99321.25;;;29.00;34.91
41531;BME280;58990;46.284;13.126;2022-07-10T09:50:36;99320.31;;;27.83;36.34
41531;BME280;58990;46.284;13.126;2022-07-10T09:53:06;99320.41;;;27.59;36.15
41531;BME280;58990;46.284;13.126;2022-07-10T09:55:36;99324.63;;;27.27;35.94
41531;BME280;58990;46.284;13.126;2022-07-10T09:58:04;99319.97;;;27.13;35.99
41531;BME280;58990;46.284;13.126;2022-07-10T10:00:32;99313.78;;;27.32;35.89
41531;BME280;58990;46.284;13.126;2022-07-10T10:02:59;99327.19;;;27.37;36.54
41531;BME280;58990;46.284;13.126;2022-07-10T10:05:45;99329.91;;;27.37;36.10
41531;BME280;58990;46.284;13.126;2022-07-10T10:08:22;99328.19;;;27.22;36.05
41531;BME280;58990;46.284;13.126;2022-07-10T10:10:50;99326.72;;;27.87;34.99
41531;BME280;58990;46.284;13.126;2022-07-10T10:13:20;99324.94;;;28.15;35.34
41531;BME280;58990;46.284;13.126;2022-07-10T10:15:46;99328.03;;;27.38;36.25
41531;BME280;58990;46.284;13.126;2022-07-10T10:18:13;99322.03;;;26.97;36.83
41531;BME280;58990;46.284;13.126;2022-07-10T10:20:40;99330.53;;;27.29;36.67
41531;BME280;58990;46.284;13.126;2022-07-10T10:23:10;99325.47;;;27.46;35.85
41531;BME280;58990;46.284;13.126;2022-07-10T10:25:37;99328.78;;;27.19;34.89
41531;BME280;58990;46.284;13.126;2022-07-10T10:28:05;99338.69;;;27.24;35.37
41531;BME280;58990;46.284;13.126;2022-07-10T10:30:32;99337.00;;;27.52;35.00
41531;BME280;58990;46.284;13.126;2022-07-10T10:32:58;99336.50;;;27.26;34.84
41531;BME280;58990;46.284;13.126;2022-07-10T10:35:45;99331.72;;;26.98;35.46
41531;BME280;58990;46.284;13.126;2022-07-10T10:38:14;99339.47;;;27.48;34.66
41531;BME280;58990;46.284;13.126;2022-07-10T10:40:40;99334.09;;;27.81;34.92
41531;BME280;58990;46.284;13.126;2022-07-10T10:45:53;99334.03;;;28.52;33.59
41531;BME280;58990;46.284;13.126;2022-07-10T10:48:18;99334.72;;;28.44;32.93
41531;BME280;58990;46.284;13.126;2022-07-10T10:53:28;99323.75;;;29.10;32.49
41531;BME280;58990;46.284;13.126;2022-07-10T11:04:16;99309.50;;;29.32;31.77
41531;BME280;58990;46.284;13.126;2022-07-10T11:06:51;99300.03;;;30.03;30.93
41531;BME280;58990;46.284;13.126;2022-07-10T11:09:33;99303.50;;;30.58;29.96
41531;BME280;58990;46.284;13.126;2022-07-10T11:14:38;99294.84;;;30.15;29.81
41531;BME280;58990;46.284;13.126;2022-07-10T11:17:05;99293.13;;;30.19;29.73
41531;BME280;58990;46.284;13.126;2022-07-10T11:19:32;99292.31;;;30.19;29.94
41531;BME280;58990;46.284;13.126;2022-07-10T11:25:20;99296.66;;;31.18;27.36
41531;BME280;58990;46.284;13.126;2022-07-10T11:28:12;99281.97;;;31.10;27.63
41531;BME280;58990;46.284;13.126;2022-07-10T11:30:53;99282.78;;;31.54;27.36
41531;BME280;58990;46.284;13.126;2022-07-10T11:33:19;99272.78;;;30.71;28.35
41531;BME280;58990;46.284;13.126;2022-07-10T11:35:53;99277.69;;;29.89;29.38
41531;BME280;58990;46.284;13.126;2022-07-10T11:38:23;99277.16;;;29.41;30.19
41531;BME280;58990;46.284;13.126;2022-07-10T11:40:49;99278.38;;;28.84;30.56
41531;BME280;58990;46.284;13.126;2022-07-10T11:43:15;99264.56;;;28.86;31.13
41531;BME280;58990;46.284;13.126;2022-07-10T11:45:43;99258.13;;;28.96;31.78
41531;BME280;58990;46.284;13.126;2022-07-10T11:48:19;99262.16;;;28.70;31.17
41531;BME280;58990;46.284;13.126;2022-07-10T11:50:45;99254.25;;;29.61;29.84
41531;BME280;58990;46.284;13.126;2022-07-10T11:53:11;99258.41;;;30.22;29.02
41531;BME280;58990;46.284;13.126;2022-07-10T11:55:37;99251.63;;;30.91;28.78
41531;BME280;58990;46.284;13.126;2022-07-10T11:58:13;99256.47;;;30.45;29.74
41531;BME280;58990;46.284;13.126;2022-07-10T12:00:39;99257.00;;;29.93;30.23
41531;BME280;58990;46.284;13.126;2022-07-10T12:03:19;99249.97;;;30.55;28.97
41531;BME280;58990;46.284;13.126;2022-07-10T12:05:46;99249.91;;;30.06;29.74
41531;BME280;58990;46.284;13.126;2022-07-10T12:08:12;99246.28;;;30.10;29.73
41531;BME280;58990;46.284;13.126;2022-07-10T12:10:41;99246.09;;;30.07;29.95
41531;BME280;58990;46.284;13.126;2022-07-10T12:13:13;99253.66;;;29.73;30.55
41531;BME280;58990;46.284;13.126;2022-07-10T12:15:43;99242.56;;;29.52;31.42
41531;BME280;58990;46.284;13.126;2022-07-10T12:18:16;99242.88;;;29.28;31.36
41531;BME280;58990;46.284;13.126;2022-07-10T12:20:43;99247.38;;;29.18;30.49
41531;BME280;58990;46.284;13.126;2022-07-10T12:23:11;99246.50;;;29.09;31.15
41531;BME280;58990;46.284;13.126;2022-07-10T12:25:42;99245.59;;;29.50;30.64
41531;BME280;58990;46.284;13.126;2022-07-10T12:28:07;99249.44;;;29.22;30.66
41531;BME280;58990;46.284;13.126;2022-07-10T12:30:38;99247.94;;;28.93;31.51
41531;BME280;58990;46.284;13.126;2022-07-10T12:35:58;99257.34;;;28.81;31.61
41531;BME280;58990;46.284;13.126;2022-07-10T12:38:29;99254.84;;;29.22;30.79
41531;BME280;58990;46.284;13.126;2022-07-10T12:41:11;99257.38;;;29.55;31.16
41531;BME280;58990;46.284;13.126;2022-07-10T12:43:38;99258.72;;;29.43;30.79
41531;BME280;58990;46.284;13.126;2022-07-10T12:46:15;99265.16;;;28.69;32.32
41531;BME280;58990;46.284;13.126;2022-07-10T12:48:42;99258.50;;;29.03;32.57
41531;BME280;58990;46.284;13.126;2022-07-10T12:51:21;99262.50;;;29.42;31.97
41531;BME280;58990;46.284;13.126;2022-07-10T12:53:46;99256.88;;;29.98;31.07
41531;BME280;58990;46.284;13.126;2022-07-10T12:59:13;99251.16;;;30.89;29.33
41531;BME280;58990;46.284;13.126;2022-07-10T13:01:43;99254.47;;;30.77;29.26
41531;BME280;58990;46.284;13.126;2022-07-10T13:04:08;99262.84;;;30.49;29.80
41531;BME280;58990;46.284;13.126;2022-07-10T13:06:35;99260.63;;;29.88;30.73
41531;BME280;58990;46.284;13.126;2022-07-10T13:09:02;99257.97;;;30.28;30.28
41531;BME280;58990;46.284;13.126;2022-07-10T13:11:27;99255.47;;;30.00;30.38
41531;BME280;58990;46.284;13.126;2022-07-10T13:13:53;99257.09;;;29.19;31.47
41531;BME280;58990;46.284;13.126;2022-07-10T13:16:19;99267.50;;;29.12;31.70
41531;BME280;58990;46.284;13.126;2022-07-10T13:18:46;99259.78;;;29.19;31.73
41531;BME280;58990;46.284;13.126;2022-07-10T13:21:12;99256.25;;;29.56;30.91
41531;BME280;58990;46.284;13.126;2022-07-10T13:23:38;99247.53;;;28.85;31.80
41531;BME280;58990;46.284;13.126;2022-07-10T13:26:05;99256.25;;;28.82;31.99
41531;BME280;58990;46.284;13.126;2022-07-10T13:28:33;99249.84;;;29.29;31.58
41531;BME280;58990;46.284;13.126;2022-07-10T13:30:59;99245.47;;;29.33;31.17